Time;durP1;ratioP1;P1;durP2;ratioP2;P2;SDS_P1;SDS_P2;PMS_P1;PMS_P2;Temp;Humidity;BMP_temperature;BMP_pressure;BME280_temperature;BME280_humidity;BME280_pressure;Samples;Min_cycle;Max_cycle;Signal;HPM_P1;HPM_P2
2022/04/20 00:02:18;;;;;;;3.80;1.33;;;9.30;55.90;;;;;;5068718;28;20080;-70
2022/04/20 00:04:45;;;;;;;4.38;1.05;;;9.20;55.90;;;;;;5069481;28;20055;-70
2022/04/20 00:07:13;;;;;;;3.78;1.10;;;9.20;56.20;;;;;;5066488;28;20079;-71
2022/04/20 00:09:40;;;;;;;3.25;1.23;;;9.10;56.50;;;;;;5072116;28;20041;-71
2022/04/20 00:12:09;;;;;;;3.03;1.08;;;9.10;56.70;;;;;;5071387;28;20056;-71
2022/04/20 00:14:36;;;;;;;3.45;1.40;;;9.10;56.90;;;;;;5071147;28;20072;-69
2022/04/20 00:17:04;;;;;;;2.97;1.13;;;9.00;57.10;;;;;;5070631;28;20061;-71
2022/04/20 00:19:31;;;;;;;3.40;1.35;;;8.90;57.10;;;;;;5072256;28;20116;-70
2022/04/20 00:21:58;;;;;;;2.83;1.00;;;8.90;57.40;;;;;;5053297;28;20451;-70
2022/04/20 00:24:27;;;;;;;2.80;1.15;;;8.90;57.70;;;;;;5071905;28;20041;-70
2022/04/20 00:26:54;;;;;;;2.92;1.20;;;8.80;58.00;;;;;;5066392;28;20048;-70
2022/04/20 00:29:21;;;;;;;3.42;1.35;;;8.80;58.00;;;;;;5070692;28;20059;-70
2022/04/20 00:31:48;;;;;;;4.20;1.30;;;8.80;57.90;;;;;;5052725;28;20056;-70
2022/04/20 00:34:15;;;;;;;4.05;1.23;;;8.70;58.00;;;;;;5069975;28;20062;-70
2022/04/20 00:36:42;;;;;;;5.50;1.48;;;8.70;58.20;;;;;;5070148;28;20067;-71
2022/04/20 00:39:09;;;;;;;3.28;1.17;;;8.60;58.50;;;;;;5069522;28;20474;-70
2022/04/20 00:41:38;;;;;;;3.20;1.02;;;8.60;58.40;;;;;;5050409;28;20052;-69
2022/04/20 00:44:06;;;;;;;1.80;0.85;;;8.60;58.50;;;;;;5068628;28;20041;-69
2022/04/20 00:46:34;;;;;;;3.00;0.90;;;8.60;58.50;;;;;;5050683;28;20072;-71
2022/04/20 00:49:02;;;;;;;2.92;1.10;;;8.60;58.50;;;;;;5067580;28;20494;-71
2022/04/20 00:51:30;;;;;;;3.47;0.80;;;8.50;58.60;;;;;;5050197;28;20048;-70
2022/04/20 00:54:00;;;;;;;3.05;1.05;;;8.40;58.90;;;;;;5068491;28;20056;-69
2022/04/20 00:56:27;;;;;;;3.63;1.30;;;8.40;59.00;;;;;;5049546;28;20113;-70
2022/04/20 00:58:56;;;;;;;3.00;1.42;;;8.40;59.20;;;;;;5070578;28;20059;-71
2022/04/20 01:01:23;;;;;;;3.88;1.25;;;8.40;59.10;;;;;;5047765;28;20094;-71
2022/04/20 01:03:50;;;;;;;4.10;1.38;;;8.30;59.20;;;;;;5050625;28;20040;-70
2022/04/20 01:06:49;;;;;;;1.75;0.80;;;8.30;59.30;;;;;;5033245;28;20059;-70
2022/04/20 01:09:39;;;;;;;2.03;0.80;;;8.20;59.40;;;;;;5039166;28;20131;-70
2022/04/20 01:12:29;;;;;;;1.75;0.95;;;8.20;59.30;;;;;;5018427;28;20053;-70
2022/04/20 01:15:19;;;;;;;2.35;0.85;;;8.20;59.40;;;;;;5047342;28;20064;-70
2022/04/20 01:18:00;;;;;;;1.85;0.65;;;8.10;59.60;;;;;;5046186;28;20605;-69
2022/04/20 01:20:49;;;;;;;1.75;0.77;;;8.10;59.50;;;;;;5028577;28;20133;-70
2022/04/20 01:23:39;;;;;;;2.30;1.05;;;8.10;59.60;;;;;;5030232;28;20419;-68
2022/04/20 01:26:12;;;;;;;1.95;0.75;;;8.00;59.70;;;;;;5055079;28;20137;-69
2022/04/20 01:28:55;;;;;;;2.97;1.40;;;8.00;59.90;;;;;;5043256;28;20049;-70
2022/04/20 01:31:35;;;;;;;2.05;1.10;;;7.90;60.10;;;;;;5066547;28;20029;-70
2022/04/20 01:34:15;;;;;;;2.05;0.73;;;7.90;60.10;;;;;;5049438;28;20048;-70
2022/04/20 01:36:45;;;;;;;3.85;1.10;;;7.90;60.10;;;;;;5066691;28;20133;-71
2022/04/20 01:39:11;;;;;;;3.63;1.85;;;7.90;60.10;;;;;;5048929;28;20036;-70
2022/04/20 01:41:39;;;;;;;4.07;1.10;;;7.80;60.10;;;;;;5047800;28;20060;-70
2022/04/20 01:44:06;;;;;;;1.98;1.10;;;7.80;60.30;;;;;;5060249;28;20125;-68
2022/04/20 01:46:43;;;;;;;1.88;1.13;;;7.80;60.50;;;;;;5061569;28;20055;-69
2022/04/20 01:49:10;;;;;;;2.22;1.15;;;7.80;60.50;;;;;;5062086;28;20052;-69
2022/04/20 01:52:01;;;;;;;2.05;1.00;;;7.70;60.70;;;;;;5044879;28;20048;-70
2022/04/20 01:54:28;;;;;;;1.60;0.90;;;7.70;60.90;;;;;;5060744;28;20052;-70
2022/04/20 01:57:20;;;;;;;2.42;0.85;;;7.70;61.10;;;;;;5043088;28;20048;-70
2022/04/20 02:00:11;;;;;;;2.90;0.98;;;7.70;61.20;;;;;;5061021;28;20133;-70
2022/04/20 02:02:40;;;;;;;3.47;1.05;;;7.60;61.30;;;;;;5063593;28;20047;-70
2022/04/20 02:05:36;;;;;;;2.50;1.00;;;7.60;61.30;;;;;;5047262;28;20048;-69
2022/04/20 02:08:28;;;;;;;3.70;1.13;;;7.60;61.40;;;;;;5034133;28;20044;-71
2022/04/20 02:11:12;;;;;;;2.53;1.15;;;7.50;61.60;;;;;;5061477;28;20052;-70
2022/04/20 02:13:40;;;;;;;1.92;0.93;;;7.50;61.80;;;;;;5063422;28;20040;-70
2022/04/20 02:16:07;;;;;;;2.35;1.10;;;7.50;61.70;;;;;;5047083;28;20040;-70
2022/04/20 02:19:01;;;;;;;2.05;0.82;;;7.40;61.80;;;;;;5059433;28;20056;-70
2022/04/20 02:21:52;;;;;;;4.07;1.38;;;7.40;61.90;;;;;;5051660;28;20049;-70
2022/04/20 02:24:21;;;;;;;4.07;1.23;;;7.40;62.00;;;;;;5052242;28;20106;-69
2022/04/20 02:26:48;;;;;;;2.75;0.82;;;7.40;62.20;;;;;;5051594;28;20099;-69
2022/04/20 02:29:15;;;;;;;2.67;1.20;;;7.30;62.30;;;;;;5066542;28;20082;-70
2022/04/20 02:31:42;;;;;;;3.00;1.05;;;7.30;62.40;;;;;;5062646;28;20063;-70
2022/04/20 02:34:09;;;;;;;3.13;1.25;;;7.30;62.50;;;;;;5052421;28;20064;-69
2022/04/20 02:36:36;;;;;;;2.90;1.27;;;7.20;62.60;;;;;;5054006;28;20068;-70
2022/04/20 02:39:05;;;;;;;3.40;1.08;;;7.20;62.60;;;;;;5061758;28;20028;-71
2022/04/20 02:41:37;;;;;;;3.42;0.90;;;7.20;62.60;;;;;;5060541;28;20055;-69
2022/04/20 02:44:05;;;;;;;2.80;0.95;;;7.20;62.50;;;;;;5061628;28;20470;-69
2022/04/20 02:46:33;;;;;;;3.17;1.00;;;7.10;62.70;;;;;;5063894;28;20124;-70
2022/04/20 02:49:00;;;;;;;2.22;0.73;;;7.00;62.70;;;;;;5062034;28;20060;-69
2022/04/20 02:51:27;;;;;;;1.27;0.52;;;7.00;62.80;;;;;;5046759;28;20456;-69
2022/04/20 02:53:54;;;;;;;1.88;0.80;;;7.00;62.80;;;;;;5054003;28;20950;-69
2022/04/20 02:56:21;;;;;;;1.48;0.88;;;7.00;62.90;;;;;;5065327;28;20036;-69
2022/04/20 02:58:52;;;;;;;3.28;0.88;;;7.00;62.90;;;;;;5046888;28;20136;-69
2022/04/20 03:01:20;;;;;;;1.85;1.15;;;7.00;62.80;;;;;;5064465;28;20052;-68
2022/04/20 03:03:47;;;;;;;2.72;1.23;;;6.90;62.90;;;;;;5048454;28;20059;-72
2022/04/20 03:06:23;;;;;;;1.77;0.93;;;6.90;63.00;;;;;;5051001;28;20402;-71
2022/04/20 03:08:51;;;;;;;2.10;0.93;;;6.90;62.90;;;;;;5045842;28;20048;-70
2022/04/20 03:11:21;;;;;;;2.35;1.58;;;6.90;63.00;;;;;;5062929;28;20490;-70
2022/04/20 03:13:51;;;;;;;1.77;0.73;;;6.80;63.10;;;;;;5063229;28;20059;-71
2022/04/20 03:16:20;;;;;;;2.17;0.85;;;6.80;63.10;;;;;;5052765;28;20048;-70
2022/04/20 03:18:49;;;;;;;2.55;0.95;;;6.70;63.30;;;;;;5059679;28;20045;-70
2022/04/20 03:21:20;;;;;;;1.30;0.68;;;6.70;63.30;;;;;;5052360;28;20055;-72
2022/04/20 03:23:48;;;;;;;5.28;1.00;;;6.70;63.40;;;;;;5054091;28;20469;-70
2022/04/20 03:26:23;;;;;;;4.65;1.10;;;6.70;63.30;;;;;;5062342;28;20064;-71
2022/04/20 03:29:11;;;;;;;2.38;0.90;;;6.70;63.40;;;;;;5035938;28;20060;-69
2022/04/20 03:31:39;;;;;;;2.50;1.15;;;6.70;63.70;;;;;;5063373;28;20049;-72
2022/04/20 03:34:07;;;;;;;2.03;0.70;;;6.60;63.70;;;;;;5064741;28;20123;-70
2022/04/20 03:36:35;;;;;;;3.13;0.88;;;6.60;63.80;;;;;;5045650;28;20064;-70
2022/04/20 03:39:03;;;;;;;2.10;1.00;;;6.60;63.80;;;;;;5065933;28;20033;-71
2022/04/20 03:41:29;;;;;;;2.40;1.10;;;6.60;64.00;;;;;;5068407;28;20148;-70
2022/04/20 03:43:56;;;;;;;4.53;1.45;;;6.50;64.20;;;;;;5046513;28;20055;-71
2022/04/20 03:46:25;;;;;;;3.85;0.82;;;6.50;64.40;;;;;;5060408;28;20056;-70
2022/04/20 03:48:52;;;;;;;1.83;0.95;;;6.60;64.40;;;;;;5065331;28;20055;-71
2022/04/20 03:51:19;;;;;;;3.42;1.10;;;6.50;64.40;;;;;;5052097;28;20410;-70
2022/04/20 03:53:46;;;;;;;2.88;0.88;;;6.50;64.50;;;;;;5053519;28;20084;-72
2022/04/20 03:56:13;;;;;;;3.72;1.67;;;6.40;64.60;;;;;;5052883;28;20076;-72
2022/04/20 03:58:40;;;;;;;3.08;1.30;;;6.40;64.60;;;;;;5070365;28;20044;-69
2022/04/20 04:01:07;;;;;;;3.97;0.95;;;6.40;64.70;;;;;;5057253;28;20052;-69
2022/04/20 04:03:37;;;;;;;1.80;1.00;;;6.30;64.80;;;;;;5050548;28;20068;-69
2022/04/20 04:06:16;;;;;;;3.05;1.23;;;6.40;64.90;;;;;;5045082;28;20105;-70
2022/04/20 04:08:43;;;;;;;2.95;1.30;;;6.30;64.90;;;;;;5050796;28;20048;-71
2022/04/20 04:11:10;;;;;;;4.30;1.42;;;6.30;65.00;;;;;;5050323;28;20040;-70
2022/04/20 04:13:37;;;;;;;3.47;1.02;;;6.20;65.20;;;;;;5051453;28;20037;-70
2022/04/20 04:16:05;;;;;;;2.80;1.20;;;6.20;65.30;;;;;;5050743;28;20192;-70
2022/04/20 04:18:33;;;;;;;2.58;0.93;;;6.20;65.30;;;;;;5050509;28;20041;-69
2022/04/20 04:21:06;;;;;;;2.65;1.13;;;6.10;65.30;;;;;;5068449;28;20139;-70
2022/04/20 04:23:33;;;;;;;5.72;1.70;;;6.10;65.50;;;;;;5050569;28;20045;-69
2022/04/20 04:26:04;;;;;;;5.13;1.45;;;6.00;65.70;;;;;;5069848;28;20055;-70
2022/04/20 04:28:47;;;;;;;3.25;1.05;;;6.00;65.70;;;;;;5049993;28;20041;-70
2022/04/20 04:31:15;;;;;;;1.77;0.85;;;6.10;65.60;;;;;;5053138;28;20449;-71
2022/04/20 04:33:43;;;;;;;2.72;0.80;;;6.00;65.80;;;;;;5049519;28;20040;-70
2022/04/20 04:36:13;;;;;;;2.75;1.33;;;6.00;65.80;;;;;;5051740;28;20056;-70
2022/04/20 04:38:45;;;;;;;2.40;0.90;;;6.00;65.90;;;;;;5053634;28;20061;-70
2022/04/20 04:41:15;;;;;;;3.53;1.17;;;6.00;65.90;;;;;;5052871;28;20068;-71
2022/04/20 04:43:42;;;;;;;3.80;1.10;;;6.00;65.90;;;;;;5052602;28;20503;-70
2022/04/20 04:49:13;;;;;;;2.33;1.08;;;6.10;66.00;;;;;;5071082;28;20062;-70
2022/04/20 04:51:43;;;;;;;1.65;0.82;;;6.10;65.90;;;;;;5053040;28;20051;-70
2022/04/20 04:54:15;;;;;;;2.40;1.10;;;6.00;66.10;;;;;;5053043;28;20052;-70
2022/04/20 04:56:42;;;;;;;2.67;1.08;;;6.00;66.00;;;;;;5049265;28;20040;-70
2022/04/20 04:59:09;;;;;;;4.32;1.00;;;6.00;66.00;;;;;;5052103;28;20057;-70
2022/04/20 05:01:39;;;;;;;2.70;1.35;;;6.00;65.90;;;;;;5048613;28;20067;-71
2022/04/20 05:04:12;;;;;;;2.58;1.20;;;6.00;65.90;;;;;;5052704;28;20478;-70
2022/04/20 05:06:43;;;;;;;1.70;1.00;;;6.00;66.00;;;;;;5053136;28;20517;-71
2022/04/20 05:09:10;;;;;;;3.80;1.27;;;6.00;65.90;;;;;;5071220;28;20135;-71
2022/04/20 05:11:40;;;;;;;1.55;0.90;;;6.00;66.10;;;;;;5052633;28;20083;-70
2022/04/20 05:14:10;;;;;;;2.50;1.23;;;6.00;66.10;;;;;;5070096;28;20043;-70
2022/04/20 05:16:39;;;;;;;2.97;1.42;;;6.00;66.10;;;;;;5052855;28;20135;-72
2022/04/20 05:19:08;;;;;;;2.28;1.02;;;5.90;66.20;;;;;;5054119;28;20079;-69
2022/04/20 05:21:36;;;;;;;2.65;1.08;;;5.90;66.10;;;;;;5052693;28;20048;-70
2022/04/20 05:24:05;;;;;;;5.55;1.85;;;5.90;66.00;;;;;;5052443;28;20067;-69
2022/04/20 05:26:35;;;;;;;2.90;1.10;;;5.90;65.80;;;;;;5044526;28;20045;-70
2022/04/20 05:29:03;;;;;;;2.95;1.45;;;6.00;66.00;;;;;;5071104;28;20041;-69
2022/04/20 05:31:35;;;;;;;4.07;1.45;;;6.00;66.00;;;;;;5051884;28;20059;-71
2022/04/20 05:34:03;;;;;;;2.83;1.08;;;6.00;65.90;;;;;;5061918;28;20048;-72
2022/04/20 05:41:39;;;;;;;3.47;1.40;;;6.10;65.90;;;;;;5067447;28;20042;-71
2022/04/20 05:42:21;;;;;;;4.53;1.40;;;6.10;66.00;;;;;;5006078;28;20173;-71
2022/04/20 05:44:50;;;;;;;1.95;1.27;;;6.10;66.10;;;;;;4988800;28;20070;-70
2022/04/20 05:47:17;;;;;;;4.00;1.90;;;6.10;65.90;;;;;;5011889;28;20864;-69
2022/04/20 05:49:44;;;;;;;3.13;1.30;;;6.10;65.80;;;;;;5048572;28;20052;-70
2022/04/20 05:52:13;;;;;;;4.63;1.17;;;6.20;65.70;;;;;;5051045;28;20115;-70
2022/04/20 05:54:44;;;;;;;2.92;1.30;;;6.20;65.60;;;;;;5066148;28;20029;-70
2022/04/20 05:57:12;;;;;;;3.00;1.30;;;6.30;65.50;;;;;;5043336;28;20075;-71
2022/04/20 05:59:42;;;;;;;2.83;1.17;;;6.30;65.60;;;;;;5048741;28;20106;-70
2022/04/20 06:02:09;;;;;;;3.05;1.20;;;6.40;65.30;;;;;;5040470;28;20069;-71
2022/04/20 06:04:36;;;;;;;4.97;1.42;;;6.40;65.30;;;;;;5047075;28;20060;-70
2022/04/20 06:07:03;;;;;;;3.97;1.45;;;6.40;65.40;;;;;;5067112;28;20076;-70
2022/04/20 06:09:35;;;;;;;2.95;1.35;;;6.40;65.20;;;;;;5050467;28;20078;-69
2022/04/20 06:12:24;;;;;;;2.85;1.42;;;6.50;65.10;;;;;;5068604;28;20048;-69
2022/04/20 06:15:15;;;;;;;4.22;1.13;;;6.60;64.60;;;;;;5040751;28;20067;-70
2022/04/20 06:18:10;;;;;;;4.85;1.25;;;6.70;64.60;;;;;;5028365;28;20474;-72
2022/04/20 06:20:40;;;;;;;3.35;1.77;;;6.80;64.40;;;;;;5067898;28;20052;-69
2022/04/20 06:23:28;;;;;;;3.97;1.40;;;6.90;64.20;;;;;;5062240;28;20044;-71
2022/04/20 06:26:10;;;;;;;2.90;1.27;;;6.90;64.00;;;;;;5066034;28;20110;-70
2022/04/20 06:28:58;;;;;;;4.40;1.85;;;7.00;63.90;;;;;;5048820;28;20055;-69
2022/04/20 06:31:39;;;;;;;3.15;1.25;;;7.10;63.40;;;;;;5065587;28;20128;-71
2022/04/20 06:34:41;;;;;;;3.40;1.42;;;7.20;63.60;;;;;;5056645;28;20174;-70
2022/04/20 06:37:22;;;;;;;3.65;1.58;;;7.30;63.30;;;;;;5051711;28;20052;-70
2022/04/20 06:40:06;;;;;;;2.42;1.27;;;7.40;63.20;;;;;;5051131;28;20048;-70
2022/04/20 06:42:39;;;;;;;3.95;2.05;;;7.60;63.00;;;;;;5066271;28;20505;-70
2022/04/20 06:45:26;;;;;;;4.80;1.45;;;7.70;63.00;;;;;;5065594;28;20044;-71
2022/04/20 06:48:12;;;;;;;4.15;1.92;;;7.90;62.90;;;;;;5067183;28;20604;-70
2022/04/20 06:50:57;;;;;;;3.20;1.60;;;8.10;62.50;;;;;;5068340;28;20137;-71
2022/04/20 06:59:20;;;;;;;4.32;1.52;;;8.60;61.60;;;;;;5052488;28;20486;-70
2022/04/20 07:02:18;;;;;;;3.72;1.42;;;8.80;61.20;;;;;;5058052;28;20137;-71
2022/04/20 07:05:09;;;;;;;3.20;1.45;;;9.00;61.10;;;;;;5035118;28;20139;-71
2022/04/20 07:07:49;;;;;;;3.88;1.48;;;9.20;60.50;;;;;;5053946;28;20051;-71
2022/04/20 07:10:35;;;;;;;2.83;1.02;;;9.40;60.40;;;;;;5066590;28;20539;-70
2022/04/20 07:13:05;;;;;;;3.17;1.23;;;9.60;59.40;;;;;;5063471;28;20118;-69
2022/04/20 07:15:32;;;;;;;3.42;1.48;;;9.70;59.20;;;;;;5061662;28;20041;-70
2022/04/20 07:18:00;;;;;;;3.45;1.40;;;9.90;58.80;;;;;;5048445;28;20135;-71
2022/04/20 07:20:46;;;;;;;3.08;1.20;;;10.10;58.70;;;;;;5064451;28;20090;-70
2022/04/20 07:23:24;;;;;;;4.80;1.27;;;10.20;58.40;;;;;;5045541;28;20080;-70
2022/04/20 07:25:55;;;;;;;3.80;1.58;;;10.40;58.10;;;;;;5038421;28;20052;-70
2022/04/20 07:28:45;;;;;;;3.30;1.58;;;10.50;57.30;;;;;;5063240;28;20059;-69
2022/04/20 07:31:41;;;;;;;2.90;1.13;;;10.70;57.60;;;;;;5065386;28;20036;-70
2022/04/20 07:34:28;;;;;;;2.85;1.40;;;10.80;56.90;;;;;;5045955;28;20048;-71
2022/04/20 07:37:08;;;;;;;2.65;1.10;;;11.00;55.30;;;;;;5046062;28;20045;-71
2022/04/20 07:39:44;;;;;;;3.85;2.05;;;11.20;54.50;;;;;;5061951;28;20056;-70
2022/04/20 07:42:41;;;;;;;2.95;1.20;;;11.30;55.00;;;;;;5037239;28;20139;-70
2022/04/20 07:45:13;;;;;;;2.67;1.20;;;11.50;55.00;;;;;;5061910;28;20118;-71
2022/04/20 07:48:01;;;;;;;3.70;1.30;;;11.60;54.40;;;;;;5029073;28;20057;-70
2022/04/20 07:50:41;;;;;;;6.65;1.58;;;11.80;53.30;;;;;;5040652;28;20328;-71
2022/04/20 07:53:26;;;;;;;3.58;1.30;;;11.90;51.80;;;;;;5064295;28;20047;-71
2022/04/20 07:56:32;;;;;;;4.55;1.10;;;12.00;50.40;;;;;;5041402;28;22415;-71
2022/04/20 07:59:18;;;;;;;1.92;0.93;;;12.20;50.70;;;;;;5063140;28;20509;-69
2022/04/20 08:01:56;;;;;;;3.15;1.02;;;12.30;50.10;;;;;;5055463;28;20654;-65
2022/04/20 08:04:59;;;;;;;3.45;1.08;;;12.40;49.90;;;;;;5045735;28;20048;-64
2022/04/20 08:07:29;;;;;;;5.60;1.20;;;12.60;48.90;;;;;;5049930;28;20048;-65
2022/04/20 08:09:56;;;;;;;3.03;1.40;;;12.70;48.20;;;;;;5047929;28;20052;-65
2022/04/20 08:12:24;;;;;;;2.53;1.20;;;12.80;48.20;;;;;;5044298;28;20055;-64
2022/04/20 08:14:54;;;;;;;3.25;1.48;;;12.90;47.60;;;;;;5049216;28;20055;-65
2022/04/20 08:17:24;;;;;;;3.15;1.20;;;13.00;47.70;;;;;;5051089;28;20958;-64
2022/04/20 08:20:12;;;;;;;3.33;1.02;;;13.10;47.50;;;;;;5070880;28;20105;-66
2022/04/20 08:22:53;;;;;;;;;;;13.20;48.30;;;;;;5051345;28;20048;-66
2022/04/20 08:25:20;;;;;;;2.83;1.10;;;13.30;46.90;;;;;;5071284;28;19950;-65
2022/04/20 08:27:47;;;;;;;3.17;1.33;;;13.40;46.30;;;;;;5062490;28;20045;-64
2022/04/20 08:30:14;;;;;;;4.70;1.65;;;13.50;45.40;;;;;;5062697;28;20042;-65
2022/04/20 08:32:41;;;;;;;5.47;1.98;;;13.60;46.00;;;;;;5061597;28;20037;-64
2022/04/20 08:35:09;;;;;;;8.10;2.38;;;13.60;46.00;;;;;;5062595;28;20087;-65
2022/04/20 08:37:36;;;;;;;4.30;1.85;;;13.70;45.00;;;;;;5060697;28;20048;-65
2022/04/20 08:40:05;;;;;;;7.40;1.83;;;13.80;44.20;;;;;;5062560;28;20127;-64
2022/04/20 08:42:35;;;;;;;4.60;1.48;;;13.90;44.10;;;;;;5045894;28;20067;-65
2022/04/20 08:45:04;;;;;;;4.93;1.55;;;14.00;44.10;;;;;;5062128;28;20151;-67
2022/04/20 08:47:35;;;;;;;2.97;1.30;;;14.10;42.90;;;;;;5062169;28;20082;-65
2022/04/20 08:50:04;;;;;;;2.40;1.25;;;14.10;42.50;;;;;;5070250;28;20049;-65
2022/04/20 08:52:42;;;;;;;4.05;1.58;;;14.10;42.60;;;;;;5065637;28;20040;-65
2022/04/20 08:55:12;;;;;;;4.05;1.38;;;14.20;42.50;;;;;;5062657;28;20091;-65
2022/04/20 08:57:40;;;;;;;3.25;1.60;;;14.30;42.70;;;;;;5061394;28;20044;-64
2022/04/20 09:00:10;;;;;;;4.47;1.63;;;14.40;41.80;;;;;;5059248;28;20131;-65
2022/04/20 09:02:37;;;;;;;;;;;14.50;41.80;;;;;;5062114;28;20039;-66
2022/04/20 09:05:06;;;;;;;3.80;1.13;;;14.50;41.10;;;;;;5061044;28;19928;-65
2022/04/20 09:07:33;;;;;;;4.00;1.20;;;14.60;41.10;;;;;;5062857;28;20223;-65
2022/04/20 09:10:01;;;;;;;2.90;1.30;;;14.60;40.90;;;;;;5061195;28;20064;-64
2022/04/20 09:12:30;;;;;;;3.05;1.08;;;14.70;40.90;;;;;;5062212;28;20041;-64
2022/04/20 09:15:00;;;;;;;3.13;0.80;;;14.70;40.60;;;;;;5061118;28;21219;-66
2022/04/20 09:17:29;;;;;;;5.40;1.30;;;14.80;40.00;;;;;;5059920;28;20040;-64
2022/04/20 09:19:57;;;;;;;3.85;0.80;;;14.90;38.90;;;;;;5061925;28;20511;-65
2022/04/20 09:22:25;;;;;;;2.28;1.00;;;14.90;38.40;;;;;;5060757;28;20041;-65
2022/04/20 09:25:03;;;;;;;2.55;1.15;;;15.00;39.50;;;;;;5061215;28;20058;-65
2022/04/20 09:27:34;;;;;;;2.42;1.00;;;15.10;39.90;;;;;;5061572;28;20033;-66
2022/04/20 09:30:01;;;;;;;3.85;1.25;;;15.20;39.30;;;;;;5061840;28;20430;-66
2022/04/20 09:32:35;;;;;;;4.03;1.50;;;15.30;39.00;;;;;;5060556;28;20162;-66
2022/04/20 09:35:03;;;;;;;3.65;1.40;;;15.40;39.20;;;;;;5062134;28;20040;-66
2022/04/20 09:37:32;;;;;;;3.17;1.42;;;15.50;37.80;;;;;;5061929;28;20047;-64
2022/04/20 09:40:12;;;;;;;5.35;1.83;;;15.60;38.60;;;;;;5059268;28;20040;-66
2022/04/20 09:43:00;;;;;;;8.70;2.47;;;15.70;37.80;;;;;;5056932;28;20435;-65
2022/04/20 09:45:27;;;;;;;4.70;1.40;;;15.70;38.20;;;;;;5063508;28;20122;-66
2022/04/20 09:50:42;;;;;;;3.30;0.98;;;15.80;38.50;;;;;;5058226;28;20053;-65
2022/04/20 09:53:12;;;;;;;2.67;1.02;;;15.90;37.80;;;;;;5064950;28;20068;-66
2022/04/20 09:55:41;;;;;;;3.25;1.40;;;15.90;37.30;;;;;;5060299;28;20086;-66
2022/04/20 09:58:15;;;;;;;2.28;0.77;;;16.00;37.30;;;;;;5057658;28;20037;-65
2022/04/20 10:00:45;;;;;;;3.38;1.27;;;16.00;37.80;;;;;;5063545;28;20043;-66
2022/04/20 10:03:24;;;;;;;;;;;16.00;38.50;;;;;;5068972;28;20390;-66
2022/04/20 10:05:51;;;;;;;3.17;0.98;;;16.10;38.10;;;;;;5066068;28;20503;-66
2022/04/20 10:08:19;;;;;;;2.05;0.80;;;16.20;37.50;;;;;;5067447;28;20055;-66
2022/04/20 10:10:48;;;;;;;2.60;0.77;;;16.20;36.60;;;;;;5069504;28;20066;-66
2022/04/20 10:13:17;;;;;;;3.37;0.90;;;16.30;36.30;;;;;;5066696;28;20053;-66
2022/04/20 10:18:31;;;;;;;2.08;0.90;;;16.30;36.10;;;;;;5060635;28;20049;-66
2022/04/20 10:21:01;;;;;;;0.90;0.70;;;16.30;36.70;;;;;;5060281;28;20043;-66
2022/04/20 10:23:30;;;;;;;1.83;0.80;;;16.40;37.30;;;;;;5059553;28;20559;-65
2022/04/20 10:25:59;;;;;;;1.30;0.77;;;16.40;37.30;;;;;;5062384;28;20143;-66
2022/04/20 10:28:33;;;;;;;3.22;0.77;;;16.40;37.40;;;;;;5057601;28;20044;-65
2022/04/20 10:31:18;;;;;;;2.80;0.98;;;16.50;36.50;;;;;;5051617;28;20450;-66
2022/04/20 10:33:47;;;;;;;2.03;1.00;;;16.50;36.70;;;;;;5039410;28;20475;-67
2022/04/20 10:36:32;;;;;;;1.10;0.57;;;16.50;35.50;;;;;;5042934;28;20056;-67
2022/04/20 10:39:22;;;;;;;2.97;1.00;;;16.60;35.20;;;;;;5052269;28;20054;-66
2022/04/20 10:42:18;;;;;;;2.95;0.80;;;16.60;35.40;;;;;;5044756;28;20051;-66
2022/04/20 10:45:03;;;;;;;2.20;0.50;;;16.60;35.70;;;;;;5069473;28;20155;-66
2022/04/20 10:47:34;;;;;;;1.90;0.68;;;16.60;35.80;;;;;;5066208;28;20036;-66
2022/04/20 10:50:16;;;;;;;3.72;1.00;;;16.60;35.70;;;;;;5063591;28;20064;-66
2022/04/20 10:52:48;;;;;;;2.10;0.80;;;16.60;34.70;;;;;;5065025;28;20044;-66
2022/04/20 10:55:15;;;;;;;2.35;0.82;;;16.60;35.10;;;;;;5053656;28;20760;-66
2022/04/20 10:57:43;;;;;;;2.80;1.02;;;16.70;35.00;;;;;;5063814;28;20036;-67
2022/04/20 11:00:36;;;;;;;1.83;0.82;;;16.70;35.50;;;;;;5058898;28;20144;-65
2022/04/20 11:03:04;;;;;;;2.03;0.60;;;16.70;35.70;;;;;;5059860;28;20048;-67
2022/04/20 11:05:32;;;;;;;1.55;0.65;;;16.60;35.30;;;;;;5063594;28;20423;-66
2022/04/20 11:08:04;;;;;;;2.20;0.80;;;16.60;35.40;;;;;;5064070;28;20072;-66
2022/04/20 11:10:31;;;;;;;2.45;0.80;;;16.60;35.10;;;;;;5062910;28;20043;-65
2022/04/20 11:19:07;;;;;;;1.50;0.88;;;16.70;35.60;;;;;;5064058;28;20089;-67
2022/04/20 11:21:54;;;;;;;3.35;0.88;;;16.80;35.50;;;;;;5047979;28;20044;-66
2022/04/20 11:24:28;;;;;;;2.08;0.88;;;16.80;35.80;;;;;;5065593;28;20036;-66
2022/04/20 11:26:56;;;;;;;1.95;0.73;;;16.80;35.90;;;;;;5063325;28;20121;-66
2022/04/20 11:29:25;;;;;;;3.03;0.85;;;16.80;36.20;;;;;;5067138;28;20086;-65
2022/04/20 11:31:57;;;;;;;2.22;0.68;;;16.90;36.00;;;;;;5061392;28;20045;-66
2022/04/20 11:34:28;;;;;;;2.60;0.80;;;16.90;35.90;;;;;;5048207;28;20040;-65
2022/04/20 11:37:00;;;;;;;3.17;0.73;;;16.90;36.00;;;;;;5063226;28;20057;-66
2022/04/20 11:39:28;;;;;;;1.85;1.00;;;17.00;36.30;;;;;;5071509;28;20076;-67
2022/04/20 11:41:57;;;;;;;3.45;0.88;;;16.90;36.30;;;;;;5071186;28;20079;-66
2022/04/20 11:44:25;;;;;;;3.85;1.20;;;17.00;36.00;;;;;;5069912;28;20045;-67
2022/04/20 11:47:00;;;;;;;1.15;0.60;;;17.00;35.90;;;;;;5049415;28;20605;-67
2022/04/20 11:49:32;;;;;;;2.33;0.85;;;17.00;35.70;;;;;;5070479;28;20036;-66
2022/04/20 11:51:59;;;;;;;2.40;0.90;;;17.10;35.40;;;;;;5069302;28;20066;-65
2022/04/20 11:54:28;;;;;;;1.92;0.80;;;17.10;35.50;;;;;;5054020;28;20502;-67
2022/04/20 11:57:07;;;;;;;;;;;17.10;35.40;;;;;;5058168;28;20529;-67
2022/04/20 11:59:35;;;;;;;2.65;0.75;;;17.10;35.40;;;;;;5061411;28;20382;-66
2022/04/20 12:02:03;;;;;;;4.47;0.90;;;17.10;35.80;;;;;;5061446;28;20079;-66
2022/04/20 12:04:31;;;;;;;2.83;1.00;;;17.10;35.70;;;;;;5065127;28;20125;-66
2022/04/20 12:07:00;;;;;;;3.00;0.77;;;17.10;35.60;;;;;;5071309;28;20052;-66
2022/04/20 12:09:28;;;;;;;1.33;0.73;;;17.10;36.00;;;;;;5068892;28;20167;-67
2022/04/20 12:11:57;;;;;;;4.18;0.77;;;17.10;36.20;;;;;;5063188;28;20052;-66
2022/04/20 12:14:28;;;;;;;2.00;0.80;;;17.10;36.30;;;;;;5062453;28;20505;-65
2022/04/20 12:17:00;;;;;;;1.88;0.90;;;17.10;36.60;;;;;;5068790;28;20688;-66
2022/04/20 12:19:34;;;;;;;1.85;0.85;;;17.10;36.30;;;;;;5052652;28;20040;-66
2022/04/20 12:22:06;;;;;;;2.75;0.98;;;17.10;36.10;;;;;;5066239;28;20106;-66
2022/04/20 12:24:33;;;;;;;2.50;0.90;;;17.10;36.40;;;;;;5067343;28;20114;-66
2022/04/20 12:27:02;;;;;;;2.58;0.90;;;17.10;36.60;;;;;;5064349;28;20129;-66
2022/04/20 12:29:33;;;;;;;1.53;0.80;;;17.10;37.00;;;;;;5063312;28;20048;-66
2022/04/20 12:32:01;;;;;;;4.85;0.80;;;17.10;37.10;;;;;;5062447;28;20076;-66
2022/04/20 12:34:29;;;;;;;1.38;0.70;;;17.10;36.90;;;;;;5061677;28;20068;-66
2022/04/20 12:37:03;;;;;;;5.97;1.13;;;17.10;36.80;;;;;;5045101;28;20041;-65
2022/04/20 12:39:34;;;;;;;2.92;1.08;;;17.10;36.90;;;;;;5060907;28;20051;-66
2022/04/20 12:42:05;;;;;;;1.60;0.75;;;17.10;37.10;;;;;;5061756;28;20063;-66
2022/04/20 12:44:48;;;;;;;1.98;1.08;;;17.10;37.20;;;;;;5063726;28;20041;-64
2022/04/20 12:47:39;;;;;;;1.25;0.60;;;17.10;37.10;;;;;;5060201;28;20063;-67
2022/04/20 12:50:22;;;;;;;3.25;1.15;;;17.10;37.40;;;;;;5060131;28;20052;-67
2022/04/20 12:52:53;;;;;;;3.28;1.05;;;17.10;37.90;;;;;;5046974;28;20067;-65
2022/04/20 12:55:20;;;;;;;2.63;1.10;;;17.10;37.90;;;;;;5062790;28;20071;-66
2022/04/20 13:03:34;;;;;;;3.95;0.98;;;17.10;38.40;;;;;;5063344;28;19975;-67
2022/04/20 13:06:01;;;;;;;4.07;0.95;;;17.10;39.00;;;;;;5064425;28;20037;-65
2022/04/20 13:08:29;;;;;;;1.92;1.05;;;17.10;38.50;;;;;;5063256;28;20064;-66
2022/04/20 13:10:58;;;;;;;2.60;0.90;;;17.10;38.60;;;;;;5064028;28;20055;-65
2022/04/20 13:13:26;;;;;;;4.47;1.25;;;17.10;38.80;;;;;;5061337;28;20118;-65
2022/04/20 13:15:56;;;;;;;1.73;0.90;;;17.10;39.20;;;;;;5063662;28;20045;-66
2022/04/20 13:18:24;;;;;;;1.75;0.80;;;17.10;39.20;;;;;;5061307;28;20058;-66
2022/04/20 13:20:52;;;;;;;1.77;0.73;;;17.10;39.10;;;;;;5061070;28;20040;-67
2022/04/20 13:23:20;;;;;;;2.60;1.27;;;17.10;38.60;;;;;;5060599;28;20037;-67
2022/04/20 13:28:32;;;;;;;2.63;0.98;;;17.10;38.30;;;;;;5061669;28;20051;-65
2022/04/20 13:30:59;;;;;;;1.50;0.77;;;17.10;38.50;;;;;;5057319;28;20094;-67
2022/04/20 13:33:26;;;;;;;2.42;1.10;;;17.00;38.60;;;;;;5060754;28;20048;-65
2022/04/20 13:35:55;;;;;;;1.55;0.80;;;17.10;38.80;;;;;;5043533;28;20048;-66
2022/04/20 13:38:23;;;;;;;5.60;0.90;;;17.00;38.90;;;;;;5062704;28;20394;-65
2022/04/20 13:40:51;;;;;;;3.17;0.95;;;16.90;39.10;;;;;;5062542;28;20069;-64
2022/04/20 13:43:18;;;;;;;1.80;0.95;;;16.90;39.40;;;;;;5062605;28;20123;-65
2022/04/20 13:45:46;;;;;;;1.35;0.73;;;16.90;39.50;;;;;;5062174;28;20109;-66
2022/04/20 13:48:13;;;;;;;2.22;1.13;;;17.00;39.60;;;;;;5062135;28;20707;-66
2022/04/20 13:50:41;;;;;;;3.85;1.83;;;16.90;39.40;;;;;;5059745;28;20052;-66
2022/04/20 13:53:09;;;;;;;2.65;1.20;;;16.90;39.30;;;;;;5061533;28;20045;-66
2022/04/20 13:55:36;;;;;;;2.17;0.98;;;16.90;39.30;;;;;;5060327;28;20632;-65